Time;durP1;ratioP1;P1;durP2;ratioP2;P2;SDS_P1;SDS_P2;PMS_P1;PMS_P2;Temp;Humidity;BMP_temperature;BMP_pressure;BME280_temperature;BME280_humidity;BME280_pressure;Samples;Min_cycle;Max_cycle;Signal;HPM_P1;HPM_P2
2020/12/21 00:04:06;;;;;;;27.27;12.50;;;;;;;6.50;82.47;101839.84;10126916;28;20062;-66
2020/12/21 00:09:03;;;;;;;18.70;10.75;;;;;;;6.46;81.93;101827.84;10130830;28;20109;-65
2020/12/21 00:13:59;;;;;;;19.65;11.00;;;;;;;6.38;82.11;101830.25;10136079;28;20058;-65
2020/12/21 00:18:55;;;;;;;23.77;11.52;;;;;;;6.30;82.90;101820.69;10133082;28;20050;-65
2020/12/21 00:23:51;;;;;;;20.80;11.85;;;;;;;6.22;83.20;101818.44;10145295;28;20058;-65
2020/12/21 00:28:47;;;;;;;18.10;11.32;;;;;;;6.21;83.03;101824.97;10142315;28;20055;-66
2020/12/21 00:33:43;;;;;;;22.08;12.15;;;;;;;6.20;83.71;101826.06;10126765;28;20054;-65
2020/12/21 00:38:39;;;;;;;18.48;10.77;;;;;;;6.24;83.65;101841.59;10139711;28;20077;-65
2020/12/21 00:43:36;;;;;;;18.33;11.15;;;;;;;6.30;83.21;101828.84;10147939;28;20061;-65
2020/12/21 00:48:33;;;;;;;21.65;11.50;;;;;;;6.22;82.89;101832.03;10138985;28;20494;-65
2020/12/21 00:53:29;;;;;;;24.13;13.68;;;;;;;6.16;83.20;101838.53;10131900;28;20054;-65
2020/12/21 00:58:25;;;;;;;23.25;12.75;;;;;;;6.03;83.63;101832.44;10132765;28;20062;-64
2020/12/21 01:03:21;;;;;;;21.58;12.43;;;;;;;6.09;83.32;101825.97;10141368;28;20062;-64
2020/12/21 01:08:17;;;;;;;23.42;12.75;;;;;;;6.01;83.95;101831.91;10132142;28;20129;-65
2020/12/21 01:13:14;;;;;;;19.05;11.73;;;;;;;5.88;83.97;101837.72;10137102;28;21087;-64
2020/12/21 01:18:10;;;;;;;20.65;10.98;;;;;;;5.97;83.67;101846.25;10136685;28;20054;-64
2020/12/21 01:23:07;;;;;;;21.88;10.70;;;;;;;5.85;84.43;101840.97;10134220;28;20059;-66
2020/12/21 01:28:04;;;;;;;22.58;11.20;;;;;;;5.83;84.93;101856.69;10134787;28;20153;-65
2020/12/21 01:33:00;;;;;;;23.30;11.10;;;;;;;5.73;85.05;101853.88;10132186;28;20058;-68
2020/12/21 01:37:56;;;;;;;22.58;11.27;;;;;;;5.62;85.15;101861.13;10133431;28;20051;-65
2020/12/21 01:42:52;;;;;;;18.15;8.85;;;;;;;5.70;85.13;101857.91;10137218;28;20050;-65
2020/12/21 01:47:48;;;;;;;22.25;11.00;;;;;;;5.68;85.38;101866.31;10143326;28;20046;-64
2020/12/21 01:52:44;;;;;;;20.23;9.98;;;;;;;5.73;84.90;101857.41;10139325;28;20471;-63
2020/12/21 01:57:40;;;;;;;18.60;9.40;;;;;;;5.74;84.94;101847.38;10135874;28;20148;-66
2020/12/21 02:02:37;;;;;;;15.85;9.40;;;;;;;5.65;84.97;101850.56;10131367;28;20064;-67
2020/12/21 02:07:33;;;;;;;17.73;8.95;;;;;;;5.87;84.46;101855.09;10134462;28;20165;-65
2020/12/21 02:12:29;;;;;;;17.55;8.30;;;;;;;5.92;84.70;101860.56;10123079;28;20541;-65
2020/12/21 02:17:25;;;;;;;18.98;9.73;;;;;;;6.06;84.26;101856.38;10132868;28;20059;-65
2020/12/21 02:22:23;;;;;;;15.15;8.43;;;;;;;5.99;84.35;101861.22;10137087;28;20058;-65
2020/12/21 02:27:19;;;;;;;17.50;8.43;;;;;;;6.08;83.57;101851.50;10126616;28;20469;-63
2020/12/21 02:32:15;;;;;;;22.15;8.50;;;;;;;6.11;83.86;101848.25;10126550;28;20149;-65
2020/12/21 02:37:21;;;;;;;19.63;8.52;;;;;;;6.10;84.60;101856.66;10132139;28;20050;-66
2020/12/21 02:42:17;;;;;;;22.02;8.77;;;;;;;6.19;84.26;101854.28;10129827;28;20454;-64
2020/12/21 02:47:13;;;;;;;15.55;8.32;;;;;;;6.22;83.99;101848.31;10133534;28;20070;-65
2020/12/21 02:52:09;;;;;;;19.33;8.73;;;;;;;6.11;84.38;101848.25;10132912;28;20203;-66
2020/12/21 02:57:05;;;;;;;19.33;9.25;;;;;;;6.07;83.83;101843.63;10138033;28;20161;-66
2020/12/21 03:02:01;;;;;;;14.38;7.13;;;;;;;6.07;83.98;101847.13;10137196;28;20393;-65
2020/12/21 03:06:58;;;;;;;19.40;8.30;;;;;;;6.05;83.72;101849.28;10136273;28;20046;-66
2020/12/21 03:11:54;;;;;;;17.73;8.57;;;;;;;6.07;84.06;101852.56;10133036;28;20050;-66
2020/12/21 03:16:50;;;;;;;17.65;7.78;;;;;;;6.10;84.04;101846.66;10129033;28;20202;-65
2020/12/21 03:21:46;;;;;;;21.67;8.20;;;;;;;6.14;83.99;101846.09;10127094;28;20068;-66
2020/12/21 03:26:42;;;;;;;21.48;8.48;;;;;;;6.22;83.80;101864.63;10134462;28;20058;-66
2020/12/21 03:31:38;;;;;;;15.48;7.95;;;;;;;6.19;83.86;101854.28;10139005;28;20433;-66
2020/12/21 03:36:34;;;;;;;18.10;8.43;;;;;;;6.27;83.85;101856.53;10136126;28;20057;-66
2020/12/21 03:41:30;;;;;;;19.60;7.93;;;;;;;6.27;83.84;101856.53;10133872;28;20051;-64
2020/12/21 03:46:26;;;;;;;22.10;7.70;;;;;;;6.27;83.87;101851.09;10148013;28;20223;-66
2020/12/21 03:51:22;;;;;;;16.98;7.88;;;;;;;6.37;83.45;101851.16;10135879;28;20055;-67
2020/12/21 03:56:18;;;;;;;13.32;7.85;;;;;;;6.35;83.64;101858.75;10129878;28;20061;-63
2020/12/21 04:01:14;;;;;;;15.63;7.88;;;;;;;6.31;83.32;101847.59;10133332;28;20541;-65
2020/12/21 04:06:10;;;;;;;17.80;7.95;;;;;;;6.44;83.44;101846.31;10134987;28;20559;-65
2020/12/21 04:11:06;;;;;;;21.40;8.25;;;;;;;6.44;83.38;101850.94;10120319;28;20057;-65
2020/12/21 04:16:03;;;;;;;18.35;7.18;;;;;;;6.47;83.45;101840.34;10128200;28;20430;-65
2020/12/21 04:21:02;;;;;;;16.17;7.43;;;;;;;6.49;82.79;101832.75;10127960;28;20540;-64
2020/12/21 04:25:58;;;;;;;17.63;7.88;;;;;;;6.60;83.30;101843.69;10133499;28;20138;-67
2020/12/21 04:30:53;;;;;;;20.67;8.48;;;;;;;6.60;83.01;101844.50;10124303;28;20144;-65
2020/12/21 04:35:49;;;;;;;14.57;7.10;;;;;;;6.68;82.69;101845.91;10133098;28;20503;-66
2020/12/21 04:40:54;;;;;;;16.98;8.10;;;;;;;6.67;82.89;101850.53;10128474;28;20513;-66
2020/12/21 04:45:53;;;;;;;18.38;8.10;;;;;;;6.73;82.15;101843.22;10131986;28;20408;-65
2020/12/21 04:50:53;;;;;;;20.52;8.75;;;;;;;6.74;82.42;101844.84;10118184;28;20100;-67
2020/12/21 04:55:51;;;;;;;19.67;9.25;;;;;;;6.71;82.14;101845.41;10131141;28;20061;-64
2020/12/21 05:00:47;;;;;;;16.85;9.00;;;;;;;6.70;82.63;101843.75;10134481;28;20055;-64
2020/12/21 05:05:44;;;;;;;20.38;8.75;;;;;;;6.61;82.39;101842.59;10134350;28;20093;-65
2020/12/21 05:10:45;;;;;;;17.92;8.70;;;;;;;6.69;82.61;101847.56;10133543;28;20054;-64
2020/12/21 05:15:49;;;;;;;21.42;9.57;;;;;;;6.66;82.61;101848.91;10123315;28;20059;-65
2020/12/21 05:20:55;;;;;;;24.30;9.40;;;;;;;6.67;82.60;101845.09;10136531;28;20101;-65
2020/12/21 05:26:06;;;;;;;20.50;8.60;;;;;;;6.77;82.36;101844.31;10123157;28;20129;-66
2020/12/21 05:31:08;;;;;;;21.40;8.85;;;;;;;6.72;82.12;101847.81;10132539;28;20057;-66
2020/12/21 05:36:09;;;;;;;19.25;10.52;;;;;;;6.72;82.21;101852.44;10138893;28;20403;-66
2020/12/21 05:41:16;;;;;;;23.17;9.77;;;;;;;6.58;82.51;101856.72;10136204;28;20503;-66
2020/12/21 05:46:23;;;;;;;21.52;10.18;;;;;;;6.67;82.84;101855.16;10129119;28;20046;-65
2020/12/21 05:51:22;;;;;;;23.15;9.90;;;;;;;6.75;82.57;101851.91;10123870;28;20072;-64
2020/12/21 05:56:20;;;;;;;24.73;10.07;;;;;;;6.76;82.69;101852.75;10146925;28;20062;-64
2020/12/21 06:01:17;;;;;;;21.50;9.18;;;;;;;6.83;82.25;101847.91;10123598;28;20050;-64
2020/12/21 06:06:24;;;;;;;20.13;9.60;;;;;;;6.88;81.92;101846.00;10134690;28;20051;-66
2020/12/21 06:11:28;;;;;;;20.48;9.05;;;;;;;6.94;81.46;101861.25;10132293;28;20062;-63
2020/12/21 06:16:29;;;;;;;19.13;9.30;;;;;;;6.97;81.69;101859.09;10108328;28;20062;-63
2020/12/21 06:21:29;;;;;;;18.52;8.75;;;;;;;6.90;81.71;101860.16;10141367;28;20110;-66
2020/12/21 06:26:33;;;;;;;18.85;8.88;;;;;;;7.00;81.54;101853.13;10143968;28;20058;-65
2020/12/21 06:31:40;;;;;;;19.80;9.20;;;;;;;7.03;81.30;101852.59;10133674;28;20109;-64
2020/12/21 06:36:36;;;;;;;22.25;8.45;;;;;;;7.02;81.43;101867.28;10138237;28;20113;-64
2020/12/21 06:41:34;;;;;;;19.05;8.88;;;;;;;7.02;81.70;101861.84;10137913;28;20117;-64
2020/12/21 06:46:35;;;;;;;21.33;7.85;;;;;;;7.04;81.41;101865.09;10136954;28;20054;-64
2020/12/21 06:51:33;;;;;;;22.08;8.00;;;;;;;7.02;80.90;101870.00;10135067;28;20415;-64
2020/12/21 06:56:29;;;;;;;19.70;8.35;;;;;;;6.98;81.06;101871.59;10139532;28;20368;-65
2020/12/21 07:01:28;;;;;;;19.38;8.13;;;;;;;7.02;80.61;101872.72;10137485;28;20050;-65
2020/12/21 07:06:24;;;;;;;19.52;7.93;;;;;;;6.98;80.89;101871.59;10139953;28;20069;-65
2020/12/21 07:11:21;;;;;;;17.90;7.63;;;;;;;7.09;80.72;101879.53;10138406;28;20062;-65
2020/12/21 07:16:18;;;;;;;18.73;6.75;;;;;;;7.07;80.40;101872.72;10129296;28;20133;-65
2020/12/21 07:21:16;;;;;;;21.33;7.47;;;;;;;7.00;80.49;101880.31;10132303;28;20082;-65
2020/12/21 07:26:14;;;;;;;23.33;7.47;;;;;;;6.94;80.60;101888.47;10135702;28;20070;-65
2020/12/21 07:31:16;;;;;;;16.83;6.88;;;;;;;6.88;80.90;101894.94;10134943;28;20058;-65
2020/12/21 07:36:12;;;;;;;19.00;7.30;;;;;;;6.80;80.56;101889.19;10140905;28;20046;-64
2020/12/21 07:41:09;;;;;;;18.65;7.80;;;;;;;6.75;81.01;101884.53;10142222;28;20072;-64
2020/12/21 07:46:10;;;;;;;15.35;7.80;;;;;;;6.57;81.10;101877.66;10134995;28;20054;-64
2020/12/21 07:51:07;;;;;;;19.75;7.60;;;;;;;6.55;81.41;101881.72;10143660;28;20465;-65
2020/12/21 07:56:03;;;;;;;21.50;7.88;;;;;;;6.58;81.24;101886.63;10141626;28;20514;-65
2020/12/21 08:00:59;;;;;;;18.45;7.75;;;;;;;6.44;81.62;101889.78;10138173;28;20260;-65
2020/12/21 08:06:16;;;;;;;20.33;8.55;;;;;;;6.45;81.49;101891.44;10141990;28;20084;-65
2020/12/21 08:11:20;;;;;;;22.63;7.90;;;;;;;6.34;82.25;101888.91;10141414;28;20058;-65
2020/12/21 08:16:23;;;;;;;16.48;7.38;;;;;;;6.34;82.16;101895.16;10140564;28;20131;-65
2020/12/21 08:21:26;;;;;;;26.77;7.25;;;;;;;6.34;81.67;101889.72;10145283;28;20133;-65
2020/12/21 08:26:24;;;;;;;23.27;7.27;;;;;;;6.25;82.18;101896.72;10140586;28;20046;-65
2020/12/21 08:31:24;;;;;;;22.08;7.43;;;;;;;6.16;82.74;101895.56;10144977;28;20054;-65
2020/12/21 08:36:23;;;;;;;17.17;6.70;;;;;;;6.20;82.39;101894.78;10149444;28;20061;-64
2020/12/21 08:41:20;;;;;;;21.95;7.22;;;;;;;6.20;82.64;101893.97;10148691;28;20078;-65
2020/12/21 08:46:16;;;;;;;21.50;7.38;;;;;;;6.08;82.53;101903.09;10146846;28;20137;-64
2020/12/21 08:51:12;;;;;;;25.73;6.63;;;;;;;6.05;82.72;101892.72;10148765;28;20101;-65
2020/12/21 08:56:23;;;;;;;22.30;6.60;;;;;;;6.18;82.34;101879.81;10148342;28;20469;-64
2020/12/21 09:01:19;;;;;;;18.05;6.40;;;;;;;6.18;82.23;101890.69;10147383;28;20498;-65
2020/12/21 09:06:23;;;;;;;18.95;5.93;;;;;;;6.25;81.63;101886.66;10123152;28;20085;-64
2020/12/21 09:11:25;;;;;;;17.90;6.22;;;;;;;6.26;81.83;101892.91;10137253;28;20562;-64
2020/12/21 09:16:24;;;;;;;18.70;5.97;;;;;;;6.37;81.25;101902.78;10150187;28;20112;-65
2020/12/21 09:21:21;;;;;;;17.80;5.10;;;;;;;6.44;81.22;101900.66;10148793;28;20051;-64
2020/12/21 09:26:18;;;;;;;17.05;4.93;;;;;;;6.48;80.94;101900.97;10142663;28;20082;-64
2020/12/21 09:31:16;;;;;;;18.42;5.57;;;;;;;6.67;80.24;101894.00;10139943;28;20050;-64
2020/12/21 09:36:15;;;;;;;17.05;5.50;;;;;;;6.75;80.04;101895.41;10141060;28;20086;-64
2020/12/21 09:41:18;;;;;;;19.77;4.75;;;;;;;6.74;79.71;101900.03;10140908;28;20074;-64
2020/12/21 09:46:18;;;;;;;17.83;4.68;;;;;;;7.01;78.72;101898.25;10141147;28;20050;-64
2020/12/21 09:51:15;;;;;;;10.85;4.40;;;;;;;7.37;77.75;101886.44;10145848;28;20458;-65
2020/12/21 09:56:12;;;;;;;14.85;4.30;;;;;;;7.54;76.96;101885.38;10143055;28;20061;-65
2020/12/21 10:01:09;;;;;;;9.93;3.58;;;;;;;7.53;76.82;101872.88;10147308;28;20046;-65
2020/12/21 10:06:12;;;;;;;18.15;4.63;;;;;;;7.33;77.18;101876.34;10138859;28;20459;-65
2020/12/21 10:11:08;;;;;;;14.13;4.25;;;;;;;7.37;76.48;101878.28;10146738;28;20801;-66
2020/12/21 10:16:04;;;;;;;21.15;3.85;;;;;;;7.37;76.13;101869.28;10118756;28;20053;-65
2020/12/21 10:21:02;;;;;;;9.95;3.47;;;;;;;7.63;75.88;101862.00;10144667;28;20404;-65
2020/12/21 10:26:02;;;;;;;14.25;3.80;;;;;;;7.96;75.06;101859.84;10119660;28;20057;-65
2020/12/21 10:30:58;;;;;;;17.20;4.10;;;;;;;8.17;74.15;101849.78;10123663;28;20050;-66
2020/12/21 10:35:54;;;;;;;13.38;3.95;;;;;;;8.52;73.05;101842.69;10135765;28;20828;-64
2020/12/21 10:40:50;;;;;;;16.27;3.80;;;;;;;8.49;73.06;101830.38;10133187;28;20051;-65
2020/12/21 10:45:46;;;;;;;14.90;4.47;;;;;;;8.62;72.12;101824.34;10133420;28;20074;-65
2020/12/21 10:50:45;;;;;;;10.48;3.33;;;;;;;8.68;71.91;101816.16;10135901;28;20422;-65
2020/12/21 10:55:41;;;;;;;14.25;3.83;;;;;;;8.56;72.09;101811.84;10139934;28;20475;-63
2020/12/21 11:00:37;;;;;;;15.57;3.70;;;;;;;8.54;72.29;101805.03;10140738;28;20061;-64
2020/12/21 11:05:34;;;;;;;11.57;4.35;;;;;;;8.67;72.66;101803.63;10139170;28;20510;-65
2020/12/21 11:10:30;;;;;;;16.45;3.97;;;;;;;8.88;71.47;101813.34;10138681;28;20764;-65
2020/12/21 11:15:26;;;;;;;11.20;3.45;;;;;;;8.92;70.00;101789.88;10136479;28;20053;-64
2020/12/21 11:20:22;;;;;;;12.13;3.97;;;;;;;8.81;69.39;101783.66;10133222;28;20050;-63
2020/12/21 11:25:18;;;;;;;15.40;3.30;;;;;;;8.78;69.88;101775.25;10142276;28;20158;-62
2020/12/21 11:30:14;;;;;;;14.45;2.83;;;;;;;8.83;69.98;101764.28;10140981;28;20062;-64
2020/12/21 11:35:10;;;;;;;9.88;2.55;;;;;;;8.97;69.27;101770.75;10144784;28;20054;-64
2020/12/21 11:40:07;;;;;;;11.05;3.03;;;;;;;9.26;69.21;101767.34;10138694;28;20046;-63
2020/12/21 11:45:06;;;;;;;13.30;3.95;;;;;;;9.25;68.86;101757.50;10132258;28;20669;-64
2020/12/21 11:50:03;;;;;;;11.88;3.08;;;;;;;9.32;67.93;101740.81;10139064;28;20050;-65
2020/12/21 11:55:00;;;;;;;13.77;2.97;;;;;;;9.54;67.71;101740.34;10141477;28;20069;-64
2020/12/21 11:59:56;;;;;;;16.20;2.92;;;;;;;9.53;66.20;101738.72;10141283;28;20053;-64
2020/12/21 12:04:52;;;;;;;12.32;3.22;;;;;;;9.73;67.26;101727.63;10137091;28;20533;-65
2020/12/21 12:09:48;;;;;;;10.30;2.45;;;;;;;9.84;65.49;101726.44;10138652;28;20047;-65
2020/12/21 12:14:44;;;;;;;12.68;2.65;;;;;;;10.04;65.55;101721.88;10136581;28;20538;-65
2020/12/21 12:19:40;;;;;;;10.55;2.33;;;;;;;10.45;64.19;101710.50;10141848;28;20137;-64
2020/12/21 12:24:36;;;;;;;11.13;2.22;;;;;;;10.53;63.71;101707.91;10139142;28;20422;-65
2020/12/21 12:29:32;;;;;;;10.30;3.17;;;;;;;10.94;62.14;101701.09;10134878;28;20529;-65
2020/12/21 12:34:28;;;;;;;6.47;2.00;;;;;;;11.18;61.53;101705.66;10137896;28;20050;-64
2020/12/21 12:39:24;;;;;;;10.98;2.83;;;;;;;10.90;61.08;101700.03;10134107;28;20082;-65
2020/12/21 12:44:20;;;;;;;9.50;2.30;;;;;;;11.02;60.86;101696.84;10112360;28;20474;-66
2020/12/21 12:49:16;;;;;;;9.05;2.08;;;;;;;10.87;61.31;101684.22;10138558;28;20046;-66
2020/12/21 12:54:12;;;;;;;10.13;2.53;;;;;;;10.10;62.97;101677.00;10133741;28;20050;-65
2020/12/21 12:59:09;;;;;;;8.57;2.83;;;;;;;9.73;63.57;101655.81;10132168;28;20078;-65
2020/12/21 13:04:05;;;;;;;9.55;2.47;;;;;;;9.60;65.17;101657.31;10128420;28;20046;-66
2020/12/21 13:09:02;;;;;;;9.57;2.30;;;;;;;9.94;64.30;101661.88;10138907;28;20054;-66
2020/12/21 13:13:58;;;;;;;10.88;2.50;;;;;;;9.82;64.81;101660.38;10137008;28;20071;-64
2020/12/21 13:18:54;;;;;;;8.00;2.28;;;;;;;9.74;65.25;101674.63;10132151;28;20653;-64
2020/12/21 13:23:51;;;;;;;8.30;2.95;;;;;;;9.46;65.63;101663.44;10134489;28;20074;-66
2020/12/21 13:28:47;;;;;;;8.15;2.15;;;;;;;9.31;66.08;101671.78;10131370;28;20054;-65
2020/12/21 13:33:47;;;;;;;10.30;2.28;;;;;;;9.31;66.51;101655.41;10116023;28;20135;-65
2020/12/21 13:38:43;;;;;;;9.00;2.10;;;;;;;9.10;66.31;101653.91;10140902;28;20137;-65
2020/12/21 13:43:40;;;;;;;11.55;2.25;;;;;;;9.11;66.98;101644.66;10140198;28;20744;-65
2020/12/21 13:48:37;;;;;;;9.70;2.22;;;;;;;8.89;67.13;101640.47;10124844;28;20058;-66
2020/12/21 13:53:35;;;;;;;7.68;1.92;;;;;;;8.75;67.32;101642.16;10129157;28;20062;-65
2020/12/21 13:58:31;;;;;;;9.50;2.75;;;;;;;8.79;67.66;101638.59;10136172;28;20061;-65
2020/12/21 14:03:27;;;;;;;10.80;2.75;;;;;;;8.71;68.06;101625.56;10145236;28;20054;-65
2020/12/21 14:08:23;;;;;;;10.35;2.95;;;;;;;8.78;67.65;101619.81;10139526;28;20388;-65
2020/12/21 14:13:19;;;;;;;12.75;2.92;;;;;;;8.67;68.19;101615.50;10130261;28;20140;-64
2020/12/21 14:18:16;;;;;;;9.05;2.65;;;;;;;8.52;69.23;101611.78;10143289;28;20051;-65
2020/12/21 14:23:12;;;;;;;9.73;2.55;;;;;;;8.41;69.39;101599.31;10145261;28;20050;-66
2020/12/21 14:28:08;;;;;;;9.32;3.25;;;;;;;8.31;70.00;101605.63;10109206;28;20046;-65
2020/12/21 14:33:04;;;;;;;10.23;3.00;;;;;;;8.20;69.88;101602.13;10122508;28;20050;-66
2020/12/21 14:38:00;;;;;;;11.45;3.10;;;;;;;8.13;70.10;101596.16;10127948;28;20058;-65
2020/12/21 14:42:56;;;;;;;11.70;3.00;;;;;;;8.10;70.39;101593.16;10135153;28;20050;-65
2020/12/21 14:47:53;;;;;;;10.38;2.70;;;;;;;7.90;71.41;101577.75;10124782;28;20471;-66
2020/12/21 14:52:51;;;;;;;10.13;4.03;;;;;;;7.93;71.30;101579.91;10131346;28;20043;-66
2020/12/21 14:57:47;;;;;;;10.68;3.15;;;;;;;7.75;71.65;101582.16;10127764;28;20462;-66
2020/12/21 15:02:43;;;;;;;9.60;2.92;;;;;;;7.76;71.92;101578.34;10131510;28;20049;-67
2020/12/21 15:07:39;;;;;;;11.70;2.70;;;;;;;7.75;71.69;101571.28;10129120;28;20055;-67
2020/12/21 15:12:36;;;;;;;12.32;3.30;;;;;;;7.72;71.83;101577.25;10131602;28;20619;-67
2020/12/21 15:17:33;;;;;;;12.23;3.58;;;;;;;7.69;71.84;101577.81;10135666;28;20430;-66
2020/12/21 15:22:29;;;;;;;13.10;3.47;;;;;;;7.57;72.28;101569.16;10116072;28;20109;-67
2020/12/21 15:27:25;;;;;;;11.07;3.40;;;;;;;7.54;72.60;101562.38;10128391;28;20170;-66
2020/12/21 15:32:21;;;;;;;11.23;3.58;;;;;;;7.51;72.75;101554.72;10134063;28;20106;-66
2020/12/21 15:37:17;;;;;;;10.35;3.40;;;;;;;7.49;72.75;101540.59;10141342;28;20527;-63
2020/12/21 15:42:13;;;;;;;10.65;2.97;;;;;;;7.41;72.81;101526.75;10128408;28;20660;-65
2020/12/21 15:47:10;;;;;;;10.77;3.13;;;;;;;7.41;73.17;101533.00;10123939;28;20058;-66
2020/12/21 15:52:07;;;;;;;14.15;3.88;;;;;;;7.36;73.25;101522.94;10138083;28;20054;-64
2020/12/21 15:57:04;;;;;;;9.07;3.53;;;;;;;7.33;73.35;101509.91;10137102;28;20062;-66
2020/12/21 16:02:03;;;;;;;11.70;3.67;;;;;;;7.24;73.79;101511.56;10132746;28;20108;-65
2020/12/21 16:06:59;;;;;;;9.57;3.88;;;;;;;7.25;73.65;101496.88;10132994;28;20586;-67
2020/12/21 16:11:55;;;;;;;14.77;4.82;;;;;;;7.26;73.99;101493.03;10135499;28;20062;-65
2020/12/21 16:16:51;;;;;;;11.13;3.85;;;;;;;7.21;74.26;101484.91;10122455;28;20046;-66
2020/12/21 16:21:47;;;;;;;10.50;4.65;;;;;;;7.22;73.83;101491.16;10135829;28;20555;-65
2020/12/21 16:26:43;;;;;;;10.63;4.28;;;;;;;7.10;74.55;101488.72;10132720;28;20097;-63
2020/12/21 16:31:39;;;;;;;14.38;4.25;;;;;;;7.08;74.62;101463.75;10130714;28;20415;-66
2020/12/21 16:36:36;;;;;;;10.77;3.85;;;;;;;7.15;74.47;101453.38;10124647;28;20065;-66
2020/12/21 16:41:32;;;;;;;13.70;4.32;;;;;;;7.13;74.67;101450.13;10127387;28;20486;-66
2020/12/21 16:46:28;;;;;;;16.17;4.18;;;;;;;7.21;74.86;101441.38;10120803;28;20063;-66
2020/12/21 16:51:24;;;;;;;11.05;4.18;;;;;;;7.17;74.88;101437.56;10124313;28;20047;-65
2020/12/21 16:56:21;;;;;;;16.55;4.90;;;;;;;7.20;74.65;101428.88;10134008;28;20064;-66
2020/12/21 17:01:18;;;;;;;10.85;4.10;;;;;;;7.23;74.64;101416.63;10140169;28;20050;-67
2020/12/21 17:06:16;;;;;;;13.35;3.55;;;;;;;7.17;74.68;101413.09;10147533;28;20128;-66
2020/12/21 17:11:13;;;;;;;8.98;4.20;;;;;;;7.16;74.96;101395.16;10141537;28;20050;-67
2020/12/21 17:16:26;;;;;;;11.57;4.45;;;;;;;7.24;74.70;101381.00;10144424;28;20065;-66
2020/12/21 17:21:27;;;;;;;16.20;5.40;;;;;;;7.23;74.72;101363.03;10132613;28;20053;-65
2020/12/21 17:26:23;;;;;;;16.40;4.90;;;;;;;7.26;75.03;101351.59;10139547;28;20542;-67
2020/12/21 17:31:19;;;;;;;16.30;4.85;;;;;;;7.26;74.62;101346.16;10145740;28;20152;-66
2020/12/21 17:36:15;;;;;;;13.50;4.47;;;;;;;7.31;74.77;101342.59;10133921;28;20060;-67
2020/12/21 17:41:11;;;;;;;12.60;4.85;;;;;;;7.32;74.84;101345.03;10140006;28;20047;-67
2020/12/21 17:46:07;;;;;;;12.07;4.40;;;;;;;7.25;75.25;101333.66;10125871;28;20584;-67
2020/12/21 17:51:04;;;;;;;11.63;4.63;;;;;;;7.31;75.28;101332.56;10127138;28;20082;-65
2020/12/21 17:56:00;;;;;;;10.68;4.47;;;;;;;7.34;75.38;101321.09;10134736;28;20510;-65
2020/12/21 18:00:56;;;;;;;13.80;4.63;;;;;;;7.36;75.47;101327.06;10108378;28;20042;-66
2020/12/21 18:05:55;;;;;;;11.45;4.75;;;;;;;7.35;75.82;101322.72;10123507;28;20446;-66
2020/12/21 18:10:52;;;;;;;12.63;4.78;;;;;;;7.37;75.79;101314.28;10134068;28;20509;-65
2020/12/21 18:15:48;;;;;;;9.27;4.15;;;;;;;7.36;75.62;101307.22;10139530;28;20047;-66
2020/12/21 18:20:44;;;;;;;15.40;4.82;;;;;;;7.29;76.15;101307.53;10138028;28;20133;-66
2020/12/21 18:25:40;;;;;;;11.27;4.60;;;;;;;7.29;76.15;101301.28;10143104;28;20055;-65
2020/12/21 18:30:39;;;;;;;11.57;4.53;;;;;;;7.27;76.59;101282.50;10130336;28;20050;-65
2020/12/21 18:35:35;;;;;;;12.80;5.47;;;;;;;7.24;76.14;101261.31;10137754;28;20423;-67
2020/12/21 18:40:32;;;;;;;17.60;4.78;;;;;;;7.23;76.39;101256.97;10131447;28;20042;-66
2020/12/21 18:45:28;;;;;;;15.02;4.97;;;;;;;7.15;76.30;101246.69;10128204;28;20054;-66
2020/12/21 18:50:24;;;;;;;12.07;4.18;;;;;;;7.03;77.11;101235.34;10116554;28;20422;-66
2020/12/21 18:55:20;;;;;;;10.73;4.35;;;;;;;7.05;77.53;101235.88;10128356;28;20502;-65
2020/12/21 19:00:16;;;;;;;11.38;4.53;;;;;;;7.03;77.81;101221.75;10112052;28;20062;-65
2020/12/21 19:05:12;;;;;;;16.02;5.05;;;;;;;6.98;78.45;101197.31;10138767;28;20161;-66
2020/12/21 19:10:08;;;;;;;16.55;4.82;;;;;;;6.90;78.88;101185.94;10127536;28;20046;-67
2020/12/21 19:15:04;;;;;;;11.93;4.68;;;;;;;6.92;79.05;101177.50;10137495;28;20411;-67
2020/12/21 19:20:00;;;;;;;11.35;4.53;;;;;;;6.86;79.42;101178.63;10132222;28;20061;-65
2020/12/21 19:24:56;;;;;;;9.95;4.90;;;;;;;6.77;79.98;101159.38;10133456;28;20053;-64
2020/12/21 19:29:52;;;;;;;12.52;4.70;;;;;;;6.68;80.46;101155.63;10127441;28;20077;-66
2020/12/21 19:34:49;;;;;;;9.05;4.72;;;;;;;6.62;80.55;101141.28;10126553;28;20047;-67
2020/12/21 19:39:45;;;;;;;12.75;4.50;;;;;;;6.70;80.75;101126.28;10122551;28;20051;-66
2020/12/21 19:44:41;;;;;;;12.00;4.85;;;;;;;6.79;80.46;101124.56;10129770;28;20066;-65
2020/12/21 19:49:38;;;;;;;9.10;4.63;;;;;;;6.77;80.29;101118.59;10137570;28;20077;-66
2020/12/21 19:54:35;;;;;;;12.38;4.45;;;;;;;6.70;80.61;101105.34;10120255;28;20142;-66
2020/12/21 19:59:31;;;;;;;10.73;5.10;;;;;;;6.71;80.97;101084.44;10134869;28;20060;-67
2020/12/21 20:04:27;;;;;;;9.85;5.32;;;;;;;6.78;80.72;101084.91;10130761;28;20054;-66
2020/12/21 20:09:23;;;;;;;12.63;4.60;;;;;;;6.70;80.91;101071.91;10121335;28;20054;-66
2020/12/21 20:14:20;;;;;;;11.95;4.97;;;;;;;6.72;81.11;101058.88;10139368;28;20514;-66
2020/12/21 20:19:16;;;;;;;12.90;4.53;;;;;;;6.72;81.13;101048.00;10131352;28;20229;-67
2020/12/21 20:24:12;;;;;;;11.40;4.75;;;;;;;6.63;81.38;101027.97;10129530;28;20042;-67
2020/12/21 20:29:08;;;;;;;8.75;4.72;;;;;;;6.74;81.10;101022.16;10136688;28;20070;-66
2020/12/21 20:34:04;;;;;;;9.73;4.57;;;;;;;6.72;81.46;101015.38;10142253;28;20584;-66
2020/12/21 20:39:00;;;;;;;16.38;5.93;;;;;;;6.74;81.59;100996.91;10140473;28;20054;-66
2020/12/21 20:43:59;;;;;;;11.52;4.80;;;;;;;6.72;81.74;100993.66;10144470;28;20054;-67
2020/12/21 20:48:55;;;;;;;9.35;4.72;;;;;;;6.72;82.04;100971.91;10142669;28;20054;-66
2020/12/21 20:53:51;;;;;;;14.57;5.30;;;;;;;6.71;82.05;100956.72;10120784;28;20046;-66
2020/12/21 20:58:48;;;;;;;13.95;5.00;;;;;;;6.63;82.96;100938.28;10142820;28;20066;-67
2020/12/21 21:03:44;;;;;;;9.35;5.10;;;;;;;6.60;83.11;100936.16;10146060;28;20634;-66
2020/12/21 21:08:43;;;;;;;11.38;5.97;;;;;;;6.56;83.35;100918.81;10137553;28;20145;-67
2020/12/21 21:13:39;;;;;;;10.75;5.10;;;;;;;6.50;83.76;100893.59;10139506;28;20086;-67
2020/12/21 21:18:43;;;;;;;11.75;5.47;;;;;;;6.55;83.71;100890.03;10120186;28;20133;-66
2020/12/21 21:23:39;;;;;;;9.32;5.00;;;;;;;6.51;83.68;100887.84;10122200;28;20042;-67
2020/12/21 21:28:35;;;;;;;11.00;5.80;;;;;;;6.54;84.20;100881.03;10118452;28;20056;-67
2020/12/21 21:33:31;;;;;;;11.95;5.75;;;;;;;6.56;84.20;100864.47;10138758;28;20065;-67
2020/12/21 21:38:29;;;;;;;8.38;5.32;;;;;;;6.56;84.68;100859.03;10149114;28;20055;-66
2020/12/21 21:43:25;;;;;;;11.15;6.47;;;;;;;6.51;85.28;100852.56;10141069;28;20050;-66
2020/12/21 21:48:21;;;;;;;10.95;6.50;;;;;;;6.58;84.67;100845.97;10135415;28;20051;-67
2020/12/21 21:53:17;;;;;;;11.40;6.30;;;;;;;6.58;85.07;100840.53;10122586;28;20080;-66
2020/12/21 21:58:13;;;;;;;10.80;6.90;;;;;;;6.50;85.56;100823.78;10140412;28;20175;-65
2020/12/21 22:03:09;;;;;;;11.57;7.32;;;;;;;6.45;86.00;100815.69;10126829;28;20042;-66
2020/12/21 22:08:05;;;;;;;12.32;7.22;;;;;;;6.50;85.41;100810.19;10136183;28;20050;-66
2020/12/21 22:13:01;;;;;;;10.10;6.72;;;;;;;6.48;86.20;100808.88;10148243;28;20457;-67
2020/12/21 22:17:57;;;;;;;12.55;7.45;;;;;;;6.48;86.21;100798.81;10136696;28;20058;-65
2020/12/21 22:22:53;;;;;;;13.20;7.95;;;;;;;6.45;86.72;100783.09;10137243;28;20054;-67
2020/12/21 22:27:49;;;;;;;11.15;7.72;;;;;;;6.42;87.27;100767.34;10135449;28;20046;-67
2020/12/21 22:32:46;;;;;;;11.20;8.10;;;;;;;6.44;87.12;100762.44;10135211;28;20054;-66
2020/12/21 22:37:42;;;;;;;11.82;8.32;;;;;;;6.50;87.36;100753.16;10138734;28;20058;-65
2020/12/21 22:42:37;;;;;;;15.20;9.45;;;;;;;6.49;87.52;100748.81;10130653;28;20057;-65
2020/12/21 22:47:34;;;;;;;11.88;8.13;;;;;;;6.45;87.47;100734.19;10138469;28;20050;-67